createdAt,value
2023-01-30T00:00:22.158Z,72.22
2023-01-30T00:03:07.495Z,72.40
2023-01-30T00:05:53.567Z,72.43
2023-01-30T00:08:38.959Z,72.48
2023-01-30T00:11:24.192Z,72.04
2023-01-30T00:14:09.529Z,72.41
2023-01-30T00:16:54.715Z,72.22
2023-01-30T00:19:40.003Z,71.68
2023-01-30T00:22:25.618Z,72.26
2023-01-30T00:25:10.871Z,72.21
2023-01-30T00:27:58.306Z,72.20
2023-01-30T00:30:43.883Z,72.08
2023-01-30T00:33:29.703Z,71.80
2023-01-30T00:36:14.914Z,71.90
2023-01-30T00:39:00.322Z,71.83
2023-01-30T00:42:04.130Z,72.11
2023-01-30T00:45:09.140Z,71.74
2023-01-30T00:47:54.200Z,72.02
2023-01-30T00:50:42.520Z,72.59
2023-01-30T00:53:30.534Z,72.09
2023-01-30T00:56:15.928Z,72.53
2023-01-30T00:59:01.171Z,72.45
2023-01-30T01:01:47.112Z,71.80
2023-01-30T01:04:43.063Z,72.44
2023-01-30T01:07:29.654Z,71.87
2023-01-30T01:10:16.570Z,72.30
2023-01-30T01:13:02.771Z,72.30
2023-01-30T01:15:50.377Z,71.76
2023-01-30T01:18:36.944Z,72.30
2023-01-30T01:21:22.773Z,71.97
2023-01-30T01:24:13.414Z,72.20
2023-01-30T01:26:58.999Z,72.25
2023-01-30T01:29:44.349Z,72.21
2023-01-30T01:32:29.783Z,72.24
2023-01-30T01:35:15.552Z,72.54
2023-01-30T01:38:01.129Z,72.69
2023-01-30T01:41:02.060Z,72.23
2023-01-30T01:44:07.641Z,72.08
2023-01-30T01:46:58.654Z,72.37
2023-01-30T01:49:44.325Z,71.69
2023-01-30T01:52:29.621Z,72.11
2023-01-30T01:55:17.495Z,72.66
2023-01-30T01:58:10.875Z,72.50
2023-01-30T02:00:59.417Z,72.70
2023-01-30T02:03:49.336Z,73.49
2023-01-30T02:06:37.200Z,75.15
2023-01-30T02:09:22.860Z,77.01
2023-01-30T02:12:10.931Z,79.11
2023-01-30T02:14:58.984Z,80.12
2023-01-30T02:17:44.394Z,81.38
2023-01-30T02:20:41.836Z,82.64
2023-01-30T02:23:46.046Z,81.48
2023-01-30T02:26:52.169Z,81.54
2023-01-30T02:30:21.935Z,81.42
2023-01-30T02:33:19.072Z,80.87
2023-01-30T02:36:16.381Z,79.68
2023-01-30T02:39:10.429Z,79.78
2023-01-30T02:42:22.371Z,80.46
2023-01-30T02:45:23.918Z,81.06
2023-01-30T02:48:14.948Z,82.58
2023-01-30T02:51:07.741Z,84.06
2023-01-30T02:53:54.324Z,84.00
2023-01-30T02:56:52.391Z,84.83
2023-01-30T02:59:47.715Z,83.92
2023-01-30T03:03:07.280Z,84.31
2023-01-30T03:06:17.022Z,83.84
2023-01-30T03:09:25.406Z,83.92
2023-01-30T03:12:35.618Z,83.66
2023-01-30T03:15:38.708Z,82.98
2023-01-30T03:18:24.552Z,83.02
2023-01-30T03:21:12.333Z,83.24
2023-01-30T03:23:57.904Z,82.95
2023-01-30T03:26:56.036Z,82.63
2023-01-30T03:29:41.629Z,82.11
2023-01-30T03:32:26.970Z,82.50
2023-01-30T03:35:12.731Z,81.98
2023-01-30T03:37:58.368Z,81.97
2023-01-30T03:40:44.069Z,82.23
2023-01-30T03:43:29.322Z,82.33
2023-01-30T03:46:14.870Z,83.06
2023-01-30T03:49:00.259Z,83.08
2023-01-30T03:51:46.108Z,83.81
2023-01-30T03:54:32.455Z,84.72
2023-01-30T03:57:17.836Z,85.07
2023-01-30T04:00:04.744Z,84.90
2023-01-30T04:03:01.634Z,85.08
2023-01-30T04:05:47.078Z,84.93
2023-01-30T04:08:32.621Z,84.68
2023-01-30T04:11:18.036Z,85.30
2023-01-30T04:14:03.576Z,85.11
2023-01-30T04:16:49.197Z,84.14
2023-01-30T04:19:53.248Z,83.78
2023-01-30T04:22:38.638Z,83.73
2023-01-30T04:25:23.975Z,83.98
2023-01-30T04:28:09.583Z,83.19
2023-01-30T04:30:57.075Z,82.94
2023-01-30T04:34:03.029Z,83.27
2023-01-30T04:36:48.973Z,82.56
2023-01-30T04:39:34.125Z,83.07
2023-01-30T04:42:19.601Z,82.58
2023-01-30T04:45:24.702Z,82.39
2023-01-30T04:48:10.882Z,81.99
2023-01-30T04:50:58.698Z,83.22
2023-01-30T04:53:44.481Z,82.74
2023-01-30T04:56:30.135Z,83.25
2023-01-30T04:59:16.039Z,83.54
2023-01-30T05:02:03.296Z,84.25
2023-01-30T05:04:50.227Z,84.78
2023-01-30T05:07:35.651Z,85.09
2023-01-30T05:10:21.258Z,85.92
2023-01-30T05:13:07.401Z,87.46
2023-01-30T05:15:52.526Z,87.79
2023-01-30T05:18:37.748Z,88.84
2023-01-30T05:21:26.157Z,89.09
2023-01-30T05:24:11.340Z,89.44
2023-01-30T05:26:56.779Z,89.60
2023-01-30T05:29:42.081Z,90.10
2023-01-30T05:32:30.321Z,90.78
2023-01-30T05:35:15.946Z,90.33
2023-01-30T05:38:02.159Z,91.38
2023-01-30T05:40:47.510Z,91.70
2023-01-30T05:43:34.201Z,90.74
2023-01-30T05:46:19.952Z,90.93
2023-01-30T05:49:05.254Z,91.00
2023-01-30T05:51:51.562Z,91.17
2023-01-30T05:54:37.255Z,91.75
2023-01-30T05:57:22.218Z,90.98
2023-01-30T06:00:08.359Z,91.46
2023-01-30T06:02:58.229Z,91.71
2023-01-30T06:05:43.397Z,92.16
2023-01-30T06:08:28.940Z,92.47
2023-01-30T06:11:16.679Z,92.64
2023-01-30T06:14:01.810Z,92.50
2023-01-30T06:16:47.191Z,92.69
2023-01-30T06:19:32.497Z,92.64
2023-01-30T06:22:17.936Z,93.36
2023-01-30T06:25:03.737Z,93.34
2023-01-30T06:27:49.058Z,92.42
2023-01-30T06:30:34.537Z,92.67
2023-01-30T06:33:20.576Z,93.12
2023-01-30T06:36:06.357Z,93.19
2023-01-30T06:38:51.874Z,93.16
2023-01-30T06:41:36.876Z,93.11
2023-01-30T06:44:22.318Z,93.01
2023-01-30T06:47:07.363Z,93.23
2023-01-30T06:49:52.460Z,92.77
2023-01-30T06:52:42.053Z,92.94
2023-01-30T06:55:28.391Z,93.25
2023-01-30T06:58:14.802Z,92.82
2023-01-30T07:01:00.200Z,92.97
2023-01-30T07:03:45.658Z,93.42
2023-01-30T07:06:31.179Z,93.75
2023-01-30T07:09:16.359Z,93.79
2023-01-30T07:12:01.608Z,94.33
2023-01-30T07:14:47.130Z,94.59
2023-01-30T07:17:32.892Z,94.79
2023-01-30T07:20:18.174Z,94.54
2023-01-30T07:23:03.702Z,94.67
2023-01-30T07:25:49.294Z,95.15
2023-01-30T07:28:34.623Z,95.41
2023-01-30T07:31:19.935Z,95.54
2023-01-30T07:34:05.258Z,95.71
2023-01-30T07:36:50.900Z,95.46
2023-01-30T07:39:36.306Z,94.70
2023-01-30T07:42:21.332Z,94.99
2023-01-30T07:45:07.376Z,94.63
2023-01-30T07:47:53.729Z,95.31
2023-01-30T07:50:39.522Z,96.02
2023-01-30T07:53:24.928Z,97.04
2023-01-30T07:56:11.483Z,97.33
2023-01-30T07:58:57.112Z,97.21
2023-01-30T08:01:42.593Z,97.09
2023-01-30T08:04:28.087Z,97.28
2023-01-30T08:07:13.488Z,96.45
2023-01-30T08:09:58.678Z,97.29
2023-01-30T08:12:43.877Z,98.21
2023-01-30T08:15:31.466Z,97.46
2023-01-30T08:18:16.612Z,99.19
2023-01-30T08:21:05.676Z,99.05
2023-01-30T08:23:50.916Z,98.50
2023-01-30T08:26:36.845Z,99.38
2023-01-30T08:29:22.188Z,99.80
2023-01-30T08:32:08.010Z,99.75
2023-01-30T08:34:53.367Z,100.00
2023-01-30T08:37:40.488Z,99.10
2023-01-30T08:40:25.907Z,100.00
2023-01-30T08:43:11.116Z,100.00
2023-01-30T08:45:56.622Z,100.00
2023-01-30T08:48:49.596Z,98.22
2023-01-30T08:51:36.876Z,95.61
2023-01-30T08:54:22.250Z,94.79
2023-01-30T08:57:07.637Z,94.62
2023-01-30T08:59:52.651Z,94.73
2023-01-30T09:02:38.643Z,95.13
2023-01-30T09:05:25.107Z,93.76
2023-01-30T09:08:10.575Z,93.08
2023-01-30T09:11:03.899Z,91.66
2023-01-30T09:13:49.862Z,93.02
2023-01-30T09:16:35.296Z,91.88
2023-01-30T09:19:22.633Z,92.17
2023-01-30T09:22:08.418Z,91.50
2023-01-30T09:24:54.162Z,91.90
2023-01-30T09:27:39.727Z,91.57
2023-01-30T09:30:24.961Z,90.17
2023-01-30T09:33:10.515Z,90.91
2023-01-30T09:35:55.802Z,90.44
2023-01-30T09:38:41.053Z,90.36
2023-01-30T09:41:29.675Z,91.03
2023-01-30T09:44:32.912Z,89.86
2023-01-30T09:47:39.311Z,89.93
2023-01-30T09:50:27.738Z,89.76
2023-01-30T09:53:31.329Z,88.65
2023-01-30T09:56:17.164Z,89.37
2023-01-30T09:59:04.619Z,88.92
2023-01-30T10:02:27.336Z,87.28
2023-01-30T10:05:13.198Z,86.68
2023-01-30T10:08:20.301Z,87.22
2023-01-30T10:11:10.966Z,87.52
2023-01-30T10:14:15.186Z,85.97
2023-01-30T10:17:16.901Z,85.09
2023-01-30T10:20:34.140Z,82.19
2023-01-30T10:23:37.582Z,81.69
2023-01-30T10:26:26.404Z,81.97
2023-01-30T10:29:18.332Z,80.35
2023-01-30T10:32:30.984Z,76.92
2023-01-30T10:35:32.019Z,77.06
2023-01-30T10:38:27.541Z,77.27
2023-01-30T10:41:34.123Z,76.70
2023-01-30T10:44:22.772Z,76.14
2023-01-30T10:47:47.091Z,76.18
2023-01-30T10:50:56.950Z,74.41
2023-01-30T10:53:55.528Z,74.65
2023-01-30T10:56:51.055Z,74.05
2023-01-30T11:00:02.622Z,75.19
2023-01-30T11:03:02.907Z,73.96
2023-01-30T11:05:54.302Z,73.35
2023-01-30T11:08:40.001Z,74.14
2023-01-30T11:11:48.000Z,73.80
2023-01-30T11:14:59.579Z,74.71
2023-01-30T11:17:45.424Z,74.29
2023-01-30T11:20:30.880Z,75.16
2023-01-30T11:23:26.286Z,74.01
2023-01-30T11:26:21.738Z,73.28
2023-01-30T11:29:27.624Z,72.97
2023-01-30T11:32:19.459Z,72.01
2023-01-30T11:35:08.767Z,72.75
2023-01-30T11:38:12.439Z,72.57
2023-01-30T11:41:18.780Z,72.30
2023-01-30T11:44:05.744Z,72.51
2023-01-30T11:46:51.117Z,74.11
2023-01-30T11:49:47.224Z,75.29
2023-01-30T11:52:39.003Z,75.44
2023-01-30T11:55:24.777Z,75.04
2023-01-30T11:58:10.531Z,74.43
2023-01-30T12:00:55.993Z,75.36
2023-01-30T12:03:53.484Z,76.44
2023-01-30T12:06:42.206Z,78.05
2023-01-30T12:09:45.587Z,82.69
2023-01-30T12:12:35.065Z,88.91
2023-01-30T12:15:27.178Z,93.06
2023-01-30T12:18:57.166Z,94.72
2023-01-30T12:22:36.504Z,98.36
2023-01-30T12:25:35.717Z,96.72
2023-01-30T12:28:54.992Z,94.00
2023-01-30T12:31:47.777Z,90.91
2023-01-30T12:34:33.272Z,89.63
2023-01-30T12:37:33.534Z,90.35
2023-01-30T12:40:22.132Z,86.91
2023-01-30T12:43:15.707Z,82.56
2023-01-30T12:46:06.906Z,84.18
2023-01-30T12:49:10.393Z,83.19
2023-01-30T12:52:12.742Z,81.78
2023-01-30T12:55:37.944Z,80.43
2023-01-30T12:58:38.799Z,80.28
2023-01-30T13:01:45.681Z,78.33
2023-01-30T13:05:04.342Z,79.02
2023-01-30T13:08:27.871Z,76.63
2023-01-30T13:11:31.069Z,74.82
2023-01-30T13:14:26.261Z,75.75
2023-01-30T13:17:23.761Z,73.98
2023-01-30T13:20:09.129Z,71.14
2023-01-30T13:23:13.609Z,70.12
2023-01-30T13:26:06.291Z,68.96
2023-01-30T13:28:57.833Z,68.20
2023-01-30T13:31:53.780Z,69.23
2023-01-30T13:34:44.727Z,70.19
2023-01-30T13:37:32.434Z,70.09
2023-01-30T13:40:31.724Z,71.05
2023-01-30T13:43:37.375Z,73.00
2023-01-30T13:46:27.514Z,76.25
2023-01-30T13:49:24.817Z,80.48
2023-01-30T13:52:33.912Z,84.34
2023-01-30T13:55:32.166Z,85.83
2023-01-30T13:58:30.348Z,86.40
2023-01-30T14:01:15.900Z,89.69
2023-01-30T14:04:36.661Z,92.85
2023-01-30T14:07:32.152Z,97.37
2023-01-30T14:10:20.793Z,100.00
2023-01-30T14:13:06.467Z,100.00
2023-01-30T14:16:00.631Z,100.00
2023-01-30T14:18:46.434Z,100.00
2023-01-30T14:21:31.741Z,100.00
2023-01-30T14:24:24.928Z,100.00
2023-01-30T14:27:27.283Z,100.00
2023-01-30T14:30:39.022Z,100.00
2023-01-30T14:33:24.488Z,100.00
2023-01-30T14:36:16.116Z,100.00
2023-01-30T14:39:39.644Z,100.00
2023-01-30T14:42:27.822Z,100.00
2023-01-30T14:45:17.234Z,98.86
2023-01-30T14:48:28.163Z,98.05
2023-01-30T14:51:53.456Z,96.75
2023-01-30T14:54:48.359Z,95.05
2023-01-30T14:57:34.746Z,95.94
2023-01-30T15:00:24.604Z,96.55
2023-01-30T15:03:20.194Z,97.49
2023-01-30T15:06:06.893Z,94.96
2023-01-30T15:08:52.526Z,94.33
2023-01-30T15:11:38.587Z,94.40
2023-01-30T15:14:55.269Z,93.97
2023-01-30T15:18:10.309Z,92.58
2023-01-30T15:21:37.283Z,92.30
2023-01-30T15:24:40.985Z,93.87
2023-01-30T15:27:45.163Z,91.36
2023-01-30T15:31:01.025Z,90.85
2023-01-30T15:33:52.021Z,91.09
2023-01-30T15:36:38.780Z,90.59
2023-01-30T15:39:26.307Z,91.21
2023-01-30T15:42:15.104Z,92.40
2023-01-30T15:45:11.741Z,92.07
2023-01-30T15:48:06.543Z,91.66
2023-01-30T15:50:55.163Z,91.33
2023-01-30T15:53:44.102Z,89.76
2023-01-30T15:56:31.970Z,89.79
2023-01-30T15:59:39.873Z,89.33
2023-01-30T16:02:35.938Z,87.95
2023-01-30T16:05:25.358Z,87.66
2023-01-30T16:08:19.989Z,86.98
2023-01-30T16:11:05.185Z,86.38
2023-01-30T16:13:50.808Z,87.58
2023-01-30T16:16:37.275Z,86.82
2023-01-30T16:19:29.339Z,88.58
2023-01-30T16:22:20.517Z,88.90
2023-01-30T16:25:06.134Z,91.50
2023-01-30T16:27:53.622Z,93.39
2023-01-30T16:30:42.558Z,95.03
2023-01-30T16:33:36.338Z,97.16
2023-01-30T16:36:22.085Z,99.14
2023-01-30T16:39:34.995Z,98.41
2023-01-30T16:42:28.796Z,98.81
2023-01-30T16:45:14.125Z,99.37
2023-01-30T16:48:30.622Z,100.00
2023-01-30T16:51:22.233Z,100.00
2023-01-30T16:54:19.040Z,99.32
2023-01-30T16:57:04.696Z,97.06
2023-01-30T16:59:50.414Z,96.11
2023-01-30T17:02:39.580Z,96.67
2023-01-30T17:05:51.378Z,96.16
2023-01-30T17:08:46.780Z,96.22
2023-01-30T17:11:37.835Z,96.61
2023-01-30T17:14:30.559Z,95.11
2023-01-30T17:17:16.484Z,95.04
2023-01-30T17:20:01.750Z,95.79
2023-01-30T17:22:49.953Z,95.67
2023-01-30T17:25:47.979Z,95.26
2023-01-30T17:28:33.414Z,94.22
2023-01-30T17:31:20.872Z,93.66
2023-01-30T17:34:05.937Z,93.15
2023-01-30T17:36:53.193Z,93.35
2023-01-30T17:39:38.576Z,92.41
2023-01-30T17:42:24.324Z,93.09
2023-01-30T17:45:10.537Z,93.78
2023-01-30T17:47:56.144Z,93.21
2023-01-30T17:50:41.880Z,92.38
2023-01-30T17:53:27.230Z,90.60
2023-01-30T17:56:19.141Z,91.45
2023-01-30T17:59:22.988Z,90.07
2023-01-30T18:02:09.993Z,89.89
2023-01-30T18:04:55.494Z,89.95
2023-01-30T18:07:41.599Z,89.82
2023-01-30T18:10:27.101Z,88.94
2023-01-30T18:13:15.204Z,88.17
2023-01-30T18:16:00.707Z,86.16
2023-01-30T18:18:45.903Z,86.27
2023-01-30T18:21:32.977Z,84.21
2023-01-30T18:24:18.823Z,84.23
2023-01-30T18:27:04.067Z,83.62
2023-01-30T18:29:49.393Z,83.44
2023-01-30T18:32:37.737Z,83.18
2023-01-30T18:35:23.410Z,83.02
2023-01-30T18:38:08.536Z,82.78
2023-01-30T18:40:53.889Z,82.38
2023-01-30T18:43:39.341Z,82.54
2023-01-30T18:46:26.196Z,82.01
2023-01-30T18:49:11.552Z,81.66
2023-01-30T18:51:56.987Z,81.11
2023-01-30T18:54:42.174Z,80.19
2023-01-30T18:57:27.982Z,79.95
2023-01-30T19:00:15.304Z,80.35
2023-01-30T19:07:42.835Z,78.77
2023-01-30T19:10:28.400Z,78.79
2023-01-30T19:13:32.572Z,78.09
2023-01-30T19:16:23.479Z,78.06
2023-01-30T19:19:10.047Z,77.25
2023-01-30T19:21:55.611Z,76.90
2023-01-30T19:24:45.805Z,76.85
2023-01-30T19:27:31.050Z,76.39
2023-01-30T19:30:16.628Z,77.02
2023-01-30T19:33:02.260Z,76.30
2023-01-30T19:35:48.987Z,76.03
2023-01-30T19:38:34.437Z,74.43
2023-01-30T19:41:22.358Z,73.86
2023-01-30T19:44:08.934Z,73.22
2023-01-30T19:46:55.849Z,74.64
2023-01-30T19:49:42.225Z,74.08
2023-01-30T19:52:27.424Z,74.67
2023-01-30T19:55:12.681Z,75.03
2023-01-30T19:57:57.896Z,75.28
2023-01-30T20:00:43.285Z,76.04
2023-01-30T20:03:30.094Z,76.44
2023-01-30T20:06:23.792Z,76.95
2023-01-30T20:09:11.945Z,77.31
2023-01-30T20:11:57.046Z,77.35
2023-01-30T20:14:42.656Z,77.41
2023-01-30T20:17:28.191Z,76.98
2023-01-30T20:20:13.551Z,77.08
2023-01-30T20:22:59.720Z,75.98
2023-01-30T20:25:46.491Z,76.14
2023-01-30T20:28:32.945Z,75.32
2023-01-30T20:31:21.469Z,75.47
2023-01-30T20:34:11.347Z,74.40
2023-01-30T20:36:57.497Z,74.70
2023-01-30T20:39:47.670Z,74.26
2023-01-30T20:42:33.665Z,73.55
2023-01-30T20:45:25.273Z,73.33
2023-01-30T20:48:10.474Z,73.16
2023-01-30T20:50:55.900Z,72.90
2023-01-30T20:53:51.285Z,73.37
2023-01-30T20:56:45.633Z,72.35
2023-01-30T20:59:33.400Z,71.62
2023-01-30T21:02:18.540Z,71.91
2023-01-30T21:05:04.072Z,70.99
2023-01-30T21:07:49.459Z,71.97
2023-01-30T21:10:35.904Z,70.00
2023-01-30T21:13:22.170Z,69.93
2023-01-30T21:16:11.817Z,70.17
2023-01-30T21:19:01.365Z,69.26
2023-01-30T21:21:54.918Z,70.34
2023-01-30T21:24:40.355Z,71.55
2023-01-30T21:27:25.596Z,71.76
2023-01-30T21:30:11.542Z,72.63
2023-01-30T21:32:57.821Z,72.30
2023-01-30T21:35:43.329Z,73.03
2023-01-30T21:38:47.722Z,73.48
2023-01-30T21:41:56.198Z,73.79
2023-01-30T21:44:41.570Z,73.03
2023-01-30T21:47:27.060Z,74.28
2023-01-30T21:50:12.409Z,73.67
2023-01-30T21:52:57.768Z,73.15
2023-01-30T21:55:42.981Z,72.36
2023-01-30T21:58:31.443Z,72.70
2023-01-30T22:01:18.244Z,73.67
2023-01-30T22:04:06.371Z,73.00
2023-01-30T22:06:51.803Z,72.78
2023-01-30T22:09:37.440Z,73.16
2023-01-30T22:12:23.455Z,73.52
2023-01-30T22:15:09.573Z,73.77
2023-01-30T22:17:55.121Z,72.71
2023-01-30T22:20:42.853Z,73.41
2023-01-30T22:23:36.405Z,72.05
2023-01-30T22:26:24.065Z,71.71
2023-01-30T22:29:09.505Z,71.69
2023-01-30T22:31:55.288Z,78.93
2023-01-30T22:34:41.012Z,74.45
2023-01-30T22:37:26.301Z,72.79
2023-01-30T22:40:14.180Z,72.42
2023-01-30T22:42:59.567Z,72.23
2023-01-30T22:45:44.843Z,72.37
2023-01-30T22:48:31.142Z,72.72
2023-01-30T22:51:19.558Z,73.36
2023-01-30T22:54:15.420Z,72.75
2023-01-30T22:57:00.641Z,72.53
2023-01-30T22:59:46.243Z,72.83
2023-01-30T23:02:31.397Z,73.44
2023-01-30T23:05:17.455Z,72.81
2023-01-30T23:08:03.157Z,72.74
2023-01-30T23:10:48.618Z,73.12
2023-01-30T23:13:34.891Z,72.63
2023-01-30T23:16:23.595Z,72.84
2023-01-30T23:19:11.426Z,72.89
2023-01-30T23:21:56.522Z,72.71
2023-01-30T23:24:41.916Z,72.38
2023-01-30T23:27:27.691Z,72.09
2023-01-30T23:30:13.232Z,71.97
2023-01-30T23:32:58.591Z,72.48
2023-01-30T23:35:46.362Z,71.30
2023-01-30T23:38:32.364Z,71.92
2023-01-30T23:41:21.239Z,71.11
2023-01-30T23:44:06.955Z,71.76
2023-01-30T23:46:52.477Z,71.73
2023-01-30T23:49:38.044Z,71.49
2023-01-30T23:52:23.095Z,71.19
2023-01-30T23:55:08.863Z,71.58
2023-01-30T23:57:54.401Z,71.83
